Time;durP1;ratioP1;P1;durP2;ratioP2;P2;SDS_P1;SDS_P2;PMS_P1;PMS_P2;Temp;Humidity;BMP_temperature;BMP_pressure;BME280_temperature;BME280_humidity;BME280_pressure;Samples;Min_cycle;Max_cycle;Signal;HPM_P1;HPM_P2
2024/01/16 00:00:09;;;;;;;6.32;2.80;;;;;;;;;;480214;28;1071;-71
2024/01/16 00:00:24;;;;;;;6.85;2.90;;;;;;;;;;480604;28;933;-70
2024/01/16 00:00:45;;;;;;;5.80;2.70;;;;;;;;;;480829;28;1239;-70
2024/01/16 00:01:00;;;;;;;5.90;2.83;;;;;;;;;;481492;28;1289;-71
2024/01/16 00:01:17;;;;;;;6.37;2.80;;;;;;;;;;482312;28;934;-70
2024/01/16 00:01:34;;;;;;;7.10;2.92;;;;;;;;;;480769;28;939;-70
2024/01/16 00:01:49;;;;;;;5.38;2.70;;;;;;;;;;480572;28;1061;-70
2024/01/16 00:02:05;;;;;;;6.37;2.70;;;;;;;;;;480657;28;1239;-70
2024/01/16 00:02:20;;;;;;;7.63;2.90;;;;;;;;;;479382;28;956;-71
2024/01/16 00:02:36;;;;;;;6.93;2.97;;;;;;;;;;481558;28;1111;-70
2024/01/16 00:02:51;;;;;;;7.07;2.88;;;;;;;;;;482475;28;1082;-70
2024/01/16 00:03:07;;;;;;;8.07;3.00;;;;;;;;;;481880;28;1151;-70
2024/01/16 00:03:22;;;;;;;7.53;3.08;;;;;;;;;;481690;28;1603;-70
2024/01/16 00:03:38;;;;;;;7.37;2.80;;;;;;;;;;481542;28;1218;-71
2024/01/16 00:03:53;;;;;;;6.72;2.80;;;;;;;;;;481643;28;1038;-70
2024/01/16 00:04:10;;;;;;;5.83;2.90;;;;;;;;;;481803;28;1081;-70
2024/01/16 00:04:26;;;;;;;5.43;2.75;;;;;;;;;;481532;28;1350;-71
2024/01/16 00:04:42;;;;;;;6.25;2.85;;;;;;;;;;481699;28;1110;-70
2024/01/16 00:04:57;;;;;;;6.80;2.80;;;;;;;;;;479928;28;1283;-71
2024/01/16 00:05:13;;;;;;;5.77;2.73;;;;;;;;;;479605;28;1030;-71
2024/01/16 00:05:28;;;;;;;5.75;2.90;;;;;;;;;;479339;28;1637;-71
2024/01/16 00:05:44;;;;;;;5.10;2.80;;;;;;;;;;478592;28;1060;-71
2024/01/16 00:06:01;;;;;;;4.77;2.80;;;;;;;;;;478588;28;1395;-71
2024/01/16 00:06:16;;;;;;;5.85;2.92;;;;;;;;;;477578;28;1114;-70
2024/01/16 00:06:32;;;;;;;6.03;2.90;;;;;;;;;;477448;28;1227;-70
2024/01/16 00:06:47;;;;;;;4.97;2.63;;;;;;;;;;477297;28;1233;-70
2024/01/16 00:07:03;;;;;;;5.07;2.63;;;;;;;;;;477428;28;1304;-70
2024/01/16 00:07:19;;;;;;;5.97;2.88;;;;;;;;;;476747;28;1255;-70
2024/01/16 00:07:39;;;;;;;5.10;2.80;;;;;;;;;;474281;29;1042;-71
2024/01/16 00:07:55;;;;;;;5.80;2.83;;;;;;;;;;476161;28;1036;-70
2024/01/16 00:08:10;;;;;;;6.07;2.78;;;;;;;;;;475962;29;1439;-70
2024/01/16 00:08:26;;;;;;;5.70;2.60;;;;;;;;;;474741;29;1096;-71
2024/01/16 00:08:41;;;;;;;5.53;2.65;;;;;;;;;;476057;29;1690;-71
2024/01/16 00:08:57;;;;;;;5.57;2.80;;;;;;;;;;475123;28;1132;-70
2024/01/16 00:09:12;;;;;;;6.45;2.90;;;;;;;;;;477764;28;989;-71
2024/01/16 00:09:28;;;;;;;5.93;2.70;;;;;;;;;;478150;28;1039;-70
2024/01/16 00:09:43;;;;;;;5.72;2.70;;;;;;;;;;478069;28;2247;-70
2024/01/16 00:09:58;;;;;;;6.27;2.90;;;;;;;;;;475947;28;1321;-71
2024/01/16 00:10:14;;;;;;;5.95;2.97;;;;;;;;;;477814;28;1080;-71
2024/01/16 00:10:29;;;;;;;5.50;2.90;;;;;;;;;;475170;29;1201;-71
2024/01/16 00:10:45;;;;;;;5.30;2.72;;;;;;;;;;476360;29;1044;-70
2024/01/16 00:11:02;;;;;;;5.50;2.70;;;;;;;;;;473280;29;1323;-70
2024/01/16 00:11:18;;;;;;;5.85;2.70;;;;;;;;;;473357;29;1448;-71
2024/01/16 00:11:33;;;;;;;6.13;2.80;;;;;;;;;;473248;29;1293;-70
2024/01/16 00:11:48;;;;;;;6.70;2.80;;;;;;;;;;477019;28;989;-71
2024/01/16 00:12:04;;;;;;;7.20;2.83;;;;;;;;;;478029;28;1156;-70
2024/01/16 00:12:20;;;;;;;6.00;2.85;;;;;;;;;;476770;28;1489;-71
2024/01/16 00:12:36;;;;;;;5.85;2.80;;;;;;;;;;477861;28;950;-71
2024/01/16 00:12:51;;;;;;;7.32;3.00;;;;;;;;;;478358;28;1244;-70
2024/01/16 00:13:07;;;;;;;7.90;3.23;;;;;;;;;;477023;28;1304;-71
2024/01/16 00:13:22;;;;;;;7.90;3.20;;;;;;;;;;475137;29;1254;-70
2024/01/16 00:13:38;;;;;;;6.90;2.85;;;;;;;;;;474182;29;1297;-71
2024/01/16 00:13:53;;;;;;;6.67;2.90;;;;;;;;;;475063;29;1182;-70
2024/01/16 00:14:09;;;;;;;6.63;2.95;;;;;;;;;;476777;28;1370;-70
2024/01/16 00:14:25;;;;;;;5.13;2.88;;;;;;;;;;476923;28;1358;-70
2024/01/16 00:14:40;;;;;;;5.73;3.00;;;;;;;;;;477813;28;1258;-71
2024/01/16 00:14:55;;;;;;;6.22;2.90;;;;;;;;;;477654;28;1297;-71
2024/01/16 00:15:11;;;;;;;5.63;2.90;;;;;;;;;;476630;28;951;-71
2024/01/16 00:15:26;;;;;;;5.30;2.90;;;;;;;;;;476410;28;1318;-70
2024/01/16 00:15:42;;;;;;;6.17;3.00;;;;;;;;;;477599;28;974;-70
2024/01/16 00:15:58;;;;;;;6.10;2.90;;;;;;;;;;477484;28;1373;-70
2024/01/16 00:16:13;;;;;;;5.97;2.90;;;;;;;;;;474786;29;1223;-70
2024/01/16 00:16:29;;;;;;;6.20;3.00;;;;;;;;;;473096;29;1215;-70
2024/01/16 00:16:46;;;;;;;5.50;2.80;;;;;;;;;;475786;29;1023;-70
2024/01/16 00:17:02;;;;;;;5.43;2.83;;;;;;;;;;476109;29;1131;-70
2024/01/16 00:17:17;;;;;;;6.15;2.83;;;;;;;;;;476973;28;1142;-71
2024/01/16 00:17:33;;;;;;;5.83;2.63;;;;;;;;;;476032;29;1153;-70
2024/01/16 00:17:48;;;;;;;5.55;2.60;;;;;;;;;;474691;29;1285;-70
2024/01/16 00:18:04;;;;;;;5.87;2.80;;;;;;;;;;476106;28;923;-70
2024/01/16 00:18:19;;;;;;;5.80;3.05;;;;;;;;;;477941;28;1140;-70
2024/01/16 00:18:35;;;;;;;6.03;3.20;;;;;;;;;;477258;28;1043;-70
2024/01/16 00:18:50;;;;;;;6.28;3.00;;;;;;;;;;478331;28;1236;-70
2024/01/16 00:19:06;;;;;;;6.20;2.90;;;;;;;;;;476305;29;1301;-70
2024/01/16 00:19:21;;;;;;;7.15;3.20;;;;;;;;;;475269;28;1291;-71
2024/01/16 00:19:37;;;;;;;6.35;3.00;;;;;;;;;;477464;28;1079;-70
2024/01/16 00:19:52;;;;;;;5.57;2.80;;;;;;;;;;476526;28;1131;-70
2024/01/16 00:20:08;;;;;;;6.20;2.80;;;;;;;;;;477086;28;930;-70
2024/01/16 00:20:25;;;;;;;6.75;2.83;;;;;;;;;;476510;28;1025;-70
2024/01/16 00:20:41;;;;;;;6.07;2.80;;;;;;;;;;476879;28;934;-71
2024/01/16 00:20:56;;;;;;;5.68;2.83;;;;;;;;;;477842;28;1416;-70
2024/01/16 00:21:12;;;;;;;5.87;2.90;;;;;;;;;;479390;28;930;-70
2024/01/16 00:21:27;;;;;;;6.33;2.87;;;;;;;;;;481140;28;1186;-70
2024/01/16 00:21:46;;;;;;;6.73;2.93;;;;;;;;;;479950;28;1324;-70
2024/01/16 00:22:03;;;;;;;5.97;3.00;;;;;;;;;;480184;28;1057;-70
2024/01/16 00:22:19;;;;;;;6.35;2.97;;;;;;;;;;478262;28;1122;-70
2024/01/16 00:22:34;;;;;;;6.50;2.90;;;;;;;;;;476077;29;1402;-70
2024/01/16 00:22:50;;;;;;;5.80;2.95;;;;;;;;;;475877;29;961;-71
2024/01/16 00:23:05;;;;;;;5.80;2.80;;;;;;;;;;476211;28;1052;-71
2024/01/16 00:23:20;;;;;;;6.03;2.60;;;;;;;;;;478100;28;1039;-71
2024/01/16 00:23:36;;;;;;;6.93;2.87;;;;;;;;;;479506;28;1154;-70
2024/01/16 00:23:51;;;;;;;7.45;3.10;;;;;;;;;;479803;28;1055;-70
2024/01/16 00:24:07;;;;;;;5.90;2.83;;;;;;;;;;479642;28;1078;-70
2024/01/16 00:24:23;;;;;;;4.85;2.70;;;;;;;;;;479653;28;1057;-70
2024/01/16 00:24:39;;;;;;;7.60;2.93;;;;;;;;;;481271;28;879;-70
2024/01/16 00:24:54;;;;;;;7.93;3.00;;;;;;;;;;479926;28;1206;-70
2024/01/16 00:25:10;;;;;;;5.82;2.90;;;;;;;;;;479483;28;1201;-70
2024/01/16 00:25:26;;;;;;;7.35;3.17;;;;;;;;;;478436;28;1256;-71
2024/01/16 00:25:41;;;;;;;7.17;3.00;;;;;;;;;;477801;28;1001;-71
2024/01/16 00:25:57;;;;;;;5.53;2.75;;;;;;;;;;478406;28;1055;-71
2024/01/16 00:26:22;;;;;;;5.97;2.70;;;;;;;;;;475611;29;1340;-70
2024/01/16 00:26:38;;;;;;;5.90;2.80;;;;;;;;;;475769;28;1311;-70
2024/01/16 00:26:53;;;;;;;5.80;2.80;;;;;;;;;;475778;29;987;-70
2024/01/16 00:27:09;;;;;;;5.72;2.80;;;;;;;;;;476786;28;1075;-70
2024/01/16 00:27:24;;;;;;;5.22;2.63;;;;;;;;;;476362;28;1331;-71
2024/01/16 00:27:40;;;;;;;5.33;2.60;;;;;;;;;;477596;28;1066;-71
2024/01/16 00:27:55;;;;;;;5.25;2.70;;;;;;;;;;477440;28;957;-70
2024/01/16 00:28:11;;;;;;;5.70;2.90;;;;;;;;;;479641;28;930;-70
2024/01/16 00:28:26;;;;;;;6.63;2.90;;;;;;;;;;478199;28;926;-71
2024/01/16 00:28:43;;;;;;;6.67;2.83;;;;;;;;;;479944;28;1331;-70
2024/01/16 00:28:59;;;;;;;5.95;2.75;;;;;;;;;;479840;28;1172;-70
2024/01/16 00:29:15;;;;;;;6.27;2.83;;;;;;;;;;480632;28;1069;-70
2024/01/16 00:29:30;;;;;;;6.82;2.97;;;;;;;;;;480961;28;898;-70
2024/01/16 00:29:46;;;;;;;5.73;2.70;;;;;;;;;;479908;28;1997;-70
2024/01/16 00:30:01;;;;;;;5.80;2.80;;;;;;;;;;478829;28;1229;-71
2024/01/16 00:30:17;;;;;;;5.13;2.80;;;;;;;;;;479732;28;1318;-71
2024/01/16 00:30:33;;;;;;;5.97;2.60;;;;;;;;;;478759;28;1019;-70
2024/01/16 00:30:49;;;;;;;7.00;2.80;;;;;;;;;;479475;28;1783;-71
2024/01/16 00:31:08;;;;;;;6.07;2.85;;;;;;;;;;477356;28;1957;-70
2024/01/16 00:31:23;;;;;;;7.15;2.70;;;;;;;;;;477357;28;1101;-70
2024/01/16 00:31:39;;;;;;;7.03;2.60;;;;;;;;;;477531;28;1072;-71
2024/01/16 00:31:54;;;;;;;5.05;2.55;;;;;;;;;;477112;28;1336;-70
2024/01/16 00:32:10;;;;;;;5.18;2.90;;;;;;;;;;476377;28;1198;-70
2024/01/16 00:32:26;;;;;;;5.03;3.07;;;;;;;;;;478373;28;1075;-71
2024/01/16 00:32:41;;;;;;;6.13;2.80;;;;;;;;;;476595;28;1311;-70
2024/01/16 00:32:57;;;;;;;5.72;2.63;;;;;;;;;;476287;28;1003;-70
2024/01/16 00:33:12;;;;;;;5.07;2.70;;;;;;;;;;478136;28;1071;-70
2024/01/16 00:33:28;;;;;;;5.35;2.90;;;;;;;;;;476920;28;1054;-70
2024/01/16 00:33:43;;;;;;;4.50;2.80;;;;;;;;;;477795;28;1101;-70
2024/01/16 00:33:59;;;;;;;4.85;2.60;;;;;;;;;;478797;28;941;-70
2024/01/16 00:34:14;;;;;;;6.03;2.80;;;;;;;;;;479546;28;1241;-70
2024/01/16 00:34:30;;;;;;;5.70;2.90;;;;;;;;;;479235;28;993;-71
2024/01/16 00:34:45;;;;;;;6.17;2.80;;;;;;;;;;482021;28;1129;-70
2024/01/16 00:35:01;;;;;;;6.60;2.78;;;;;;;;;;480927;28;910;-71
2024/01/16 00:35:17;;;;;;;5.97;2.72;;;;;;;;;;480536;28;1299;-71
2024/01/16 00:35:33;;;;;;;6.07;2.60;;;;;;;;;;479107;28;1098;-71
2024/01/16 00:35:48;;;;;;;5.53;2.60;;;;;;;;;;479744;28;1431;-70
2024/01/16 00:36:04;;;;;;;5.32;2.90;;;;;;;;;;479832;28;1062;-70
2024/01/16 00:36:20;;;;;;;5.60;2.85;;;;;;;;;;479043;28;1032;-70
2024/01/16 00:36:35;;;;;;;5.03;2.50;;;;;;;;;;478979;28;1110;-70
2024/01/16 00:36:51;;;;;;;5.75;2.80;;;;;;;;;;478774;28;1105;-70
2024/01/16 00:37:06;;;;;;;6.40;3.00;;;;;;;;;;479208;28;966;-70
2024/01/16 00:37:22;;;;;;;5.82;2.92;;;;;;;;;;480977;28;962;-70
2024/01/16 00:37:37;;;;;;;6.13;2.83;;;;;;;;;;477750;28;1112;-70
2024/01/16 00:37:53;;;;;;;5.97;2.67;;;;;;;;;;476728;28;1152;-70
2024/01/16 00:38:08;;;;;;;5.60;2.70;;;;;;;;;;476267;29;1344;-71
2024/01/16 00:38:24;;;;;;;5.50;2.73;;;;;;;;;;477348;28;1031;-71
2024/01/16 00:38:39;;;;;;;6.45;2.72;;;;;;;;;;477878;28;1145;-70
2024/01/16 00:38:55;;;;;;;6.67;2.90;;;;;;;;;;478254;28;924;-70
2024/01/16 00:39:10;;;;;;;7.07;3.00;;;;;;;;;;478318;28;1469;-70
2024/01/16 00:39:25;;;;;;;5.70;2.67;;;;;;;;;;478036;28;1034;-71
2024/01/16 00:39:41;;;;;;;5.07;2.70;;;;;;;;;;478896;28;1178;-71
2024/01/16 00:39:56;;;;;;;6.40;3.05;;;;;;;;;;478376;28;1214;-70
2024/01/16 00:40:12;;;;;;;6.47;3.13;;;;;;;;;;477912;28;1327;-70
2024/01/16 00:40:28;;;;;;;6.47;3.00;;;;;;;;;;478126;28;982;-70
2024/01/16 00:40:43;;;;;;;7.82;3.05;;;;;;;;;;477797;28;1078;-71
2024/01/16 00:40:59;;;;;;;6.93;2.90;;;;;;;;;;477231;28;936;-70
2024/01/16 00:41:14;;;;;;;6.18;2.70;;;;;;;;;;477286;28;1268;-70
2024/01/16 00:41:30;;;;;;;6.20;2.95;;;;;;;;;;479244;28;878;-70
2024/01/16 00:41:45;;;;;;;6.43;3.03;;;;;;;;;;478117;28;946;-70
2024/01/16 00:42:02;;;;;;;6.50;2.83;;;;;;;;;;480595;28;1173;-71
2024/01/16 00:42:17;;;;;;;6.20;3.00;;;;;;;;;;481538;28;1021;-70
2024/01/16 00:42:33;;;;;;;6.33;2.90;;;;;;;;;;481368;28;899;-70
2024/01/16 00:42:48;;;;;;;6.60;2.75;;;;;;;;;;479154;28;1334;-71
2024/01/16 00:43:04;;;;;;;6.93;3.00;;;;;;;;;;478466;28;1093;-70
2024/01/16 00:43:19;;;;;;;6.53;2.92;;;;;;;;;;479286;28;1069;-70
2024/01/16 00:43:35;;;;;;;6.20;2.70;;;;;;;;;;479304;28;1302;-70
2024/01/16 00:43:50;;;;;;;6.38;2.67;;;;;;;;;;479184;28;1085;-70
2024/01/16 00:44:07;;;;;;;5.28;2.50;;;;;;;;;;479099;28;1060;-70
2024/01/16 00:44:23;;;;;;;4.85;2.72;;;;;;;;;;480163;28;1409;-70
2024/01/16 00:44:39;;;;;;;4.78;2.95;;;;;;;;;;479496;28;1225;-70
2024/01/16 00:44:54;;;;;;;4.70;2.77;;;;;;;;;;479030;28;1398;-70
2024/01/16 00:45:10;;;;;;;5.50;2.85;;;;;;;;;;480201;28;1319;-71
2024/01/16 00:45:25;;;;;;;6.70;3.20;;;;;;;;;;481267;28;1085;-70
2024/01/16 00:45:41;;;;;;;5.95;3.03;;;;;;;;;;481830;28;1047;-70
2024/01/16 00:45:56;;;;;;;5.23;2.80;;;;;;;;;;479890;28;1323;-71
2024/01/16 00:46:12;;;;;;;6.20;2.92;;;;;;;;;;478196;28;1446;-70
2024/01/16 00:46:27;;;;;;;6.30;2.90;;;;;;;;;;478196;28;1275;-70
2024/01/16 00:46:43;;;;;;;5.40;2.80;;;;;;;;;;476147;29;1022;-70
2024/01/16 00:47:01;;;;;;;5.70;2.77;;;;;;;;;;475077;28;1255;-70
2024/01/16 00:47:16;;;;;;;6.57;2.83;;;;;;;;;;477171;28;1025;-70
2024/01/16 00:47:32;;;;;;;7.80;3.20;;;;;;;;;;476494;28;1013;-71
2024/01/16 00:47:48;;;;;;;8.20;3.17;;;;;;;;;;477596;28;995;-70
2024/01/16 00:48:05;;;;;;;7.93;2.90;;;;;;;;;;478698;28;1263;-70
2024/01/16 00:48:20;;;;;;;5.85;2.70;;;;;;;;;;479560;28;1119;-70
2024/01/16 00:48:36;;;;;;;5.93;2.80;;;;;;;;;;479287;28;1081;-70
2024/01/16 00:48:51;;;;;;;6.95;2.90;;;;;;;;;;479296;28;939;-70
2024/01/16 00:49:07;;;;;;;6.40;2.90;;;;;;;;;;480970;28;1048;-70
2024/01/16 00:49:23;;;;;;;6.32;3.10;;;;;;;;;;482294;28;928;-70
2024/01/16 00:49:38;;;;;;;6.60;3.30;;;;;;;;;;481707;28;2017;-70
2024/01/16 00:49:54;;;;;;;5.78;3.00;;;;;;;;;;481161;28;1311;-71
2024/01/16 00:50:09;;;;;;;5.53;2.77;;;;;;;;;;479526;28;1001;-70
2024/01/16 00:50:25;;;;;;;5.38;2.80;;;;;;;;;;480140;28;1105;-70
2024/01/16 00:50:40;;;;;;;5.13;2.88;;;;;;;;;;478462;28;1388;-70
2024/01/16 00:50:56;;;;;;;5.83;2.90;;;;;;;;;;479154;28;1339;-70
2024/01/16 00:51:11;;;;;;;6.38;2.83;;;;;;;;;;478820;28;1328;-70
2024/01/16 00:51:27;;;;;;;6.00;2.90;;;;;;;;;;479899;28;1149;-70
2024/01/16 00:51:42;;;;;;;6.63;2.90;;;;;;;;;;477032;28;1184;-70
2024/01/16 00:51:58;;;;;;;7.60;2.90;;;;;;;;;;476031;29;1314;-70
2024/01/16 00:52:13;;;;;;;6.55;2.90;;;;;;;;;;476863;29;1254;-70
2024/01/16 00:52:29;;;;;;;6.60;2.90;;;;;;;;;;474760;29;1325;-70
2024/01/16 00:52:44;;;;;;;5.80;2.80;;;;;;;;;;474755;29;942;-70
2024/01/16 00:53:00;;;;;;;4.72;2.70;;;;;;;;;;474615;29;1019;-70
2024/01/16 00:53:16;;;;;;;5.20;2.80;;;;;;;;;;476549;28;1460;-71
2024/01/16 00:53:32;;;;;;;6.63;3.03;;;;;;;;;;477473;28;1079;-70
2024/01/16 00:53:47;;;;;;;7.70;3.22;;;;;;;;;;477707;28;975;-70
2024/01/16 00:54:03;;;;;;;7.20;3.23;;;;;;;;;;478701;28;1310;-70
2024/01/16 00:54:18;;;;;;;6.22;3.00;;;;;;;;;;478033;28;1163;-70
2024/01/16 00:54:34;;;;;;;6.23;2.97;;;;;;;;;;476930;28;875;-70
2024/01/16 00:54:49;;;;;;;7.05;3.00;;;;;;;;;;476738;28;1028;-70
2024/01/16 00:55:05;;;;;;;7.20;2.90;;;;;;;;;;477338;28;1404;-71
2024/01/16 00:55:20;;;;;;;6.53;2.90;;;;;;;;;;476415;28;1181;-70
2024/01/16 00:55:36;;;;;;;5.40;2.80;;;;;;;;;;476584;28;1019;-70
2024/01/16 00:55:52;;;;;;;5.00;2.80;;;;;;;;;;477029;28;1119;-70
2024/01/16 00:56:07;;;;;;;5.82;3.00;;;;;;;;;;476780;28;1051;-70
2024/01/16 00:56:23;;;;;;;6.40;3.20;;;;;;;;;;476640;28;1036;-71
2024/01/16 00:56:38;;;;;;;7.87;3.10;;;;;;;;;;477097;28;1042;-70
2024/01/16 00:56:59;;;;;;;7.88;3.00;;;;;;;;;;476308;29;1328;-70
2024/01/16 00:57:18;;;;;;;6.65;3.10;;;;;;;;;;474465;29;1163;-70
2024/01/16 00:57:34;;;;;;;7.72;3.38;;;;;;;;;;477272;28;990;-70
2024/01/16 00:57:51;;;;;;;6.45;3.25;;;;;;;;;;477121;28;1024;-70
2024/01/16 00:58:06;;;;;;;5.53;3.00;;;;;;;;;;479003;28;1691;-70
2024/01/16 00:58:22;;;;;;;5.07;3.10;;;;;;;;;;477396;28;1250;-70
2024/01/16 00:58:38;;;;;;;5.28;3.15;;;;;;;;;;477029;28;1573;-70
2024/01/16 00:58:54;;;;;;;5.43;3.03;;;;;;;;;;478707;28;1131;-70
2024/01/16 00:59:09;;;;;;;6.25;3.00;;;;;;;;;;479691;28;945;-70
2024/01/16 00:59:25;;;;;;;7.93;3.20;;;;;;;;;;479576;28;1054;-70
2024/01/16 00:59:41;;;;;;;8.52;3.22;;;;;;;;;;480023;28;1194;-71
2024/01/16 00:59:56;;;;;;;7.43;3.22;;;;;;;;;;480858;28;1435;-70
2024/01/16 01:00:12;;;;;;;5.83;3.20;;;;;;;;;;480897;28;1363;-71
2024/01/16 01:00:30;;;;;;;5.72;3.10;;;;;;;;;;481971;28;934;-70
2024/01/16 01:00:46;;;;;;;7.28;3.10;;;;;;;;;;480094;28;1604;-70
2024/01/16 01:01:01;;;;;;;6.53;3.00;;;;;;;;;;479974;28;1435;-70
2024/01/16 01:01:17;;;;;;;6.47;2.97;;;;;;;;;;479670;28;1147;-70
2024/01/16 01:01:32;;;;;;;7.50;3.28;;;;;;;;;;480037;28;1227;-70
2024/01/16 01:01:48;;;;;;;8.93;3.60;;;;;;;;;;478460;28;1050;-70
2024/01/16 01:02:03;;;;;;;6.90;3.30;;;;;;;;;;476611;29;1363;-70
2024/01/16 01:02:19;;;;;;;6.10;3.20;;;;;;;;;;476252;29;1340;-70
2024/01/16 01:02:34;;;;;;;7.23;3.27;;;;;;;;;;473825;29;1269;-70
2024/01/16 01:02:49;;;;;;;7.13;3.20;;;;;;;;;;476915;29;1181;-70
2024/01/16 01:03:05;;;;;;;7.13;3.20;;;;;;;;;;475530;28;1442;-70
2024/01/16 01:03:20;;;;;;;7.55;3.38;;;;;;;;;;476407;29;1151;-70
2024/01/16 01:03:36;;;;;;;6.10;3.37;;;;;;;;;;473612;29;1590;-70
2024/01/16 01:03:51;;;;;;;6.10;3.17;;;;;;;;;;473488;29;1378;-70
2024/01/16 01:04:07;;;;;;;6.03;3.03;;;;;;;;;;473972;29;1100;-70
2024/01/16 01:04:22;;;;;;;5.00;2.80;;;;;;;;;;474401;29;977;-70
2024/01/16 01:04:38;;;;;;;5.50;2.80;;;;;;;;;;475239;29;1118;-70
2024/01/16 01:04:53;;;;;;;6.35;3.00;;;;;;;;;;476783;28;1213;-70
2024/01/16 01:05:09;;;;;;;6.67;3.00;;;;;;;;;;476685;28;1211;-70
2024/01/16 01:05:28;;;;;;;6.38;2.95;;;;;;;;;;475737;28;1121;-70
2024/01/16 01:05:43;;;;;;;6.07;3.05;;;;;;;;;;477990;28;1017;-70
2024/01/16 01:06:00;;;;;;;6.40;3.20;;;;;;;;;;478592;28;1319;-70
2024/01/16 01:06:15;;;;;;;7.22;3.20;;;;;;;;;;477457;28;1280;-70
2024/01/16 01:06:31;;;;;;;7.03;3.13;;;;;;;;;;473078;29;1222;-70
2024/01/16 01:06:46;;;;;;;6.90;3.13;;;;;;;;;;475223;29;1212;-71
2024/01/16 01:07:02;;;;;;;6.05;3.03;;;;;;;;;;473749;29;1348;-70
2024/01/16 01:07:17;;;;;;;6.20;3.13;;;;;;;;;;473545;29;1108;-70
2024/01/16 01:07:33;;;;;;;6.07;3.25;;;;;;;;;;472625;29;1150;-70
2024/01/16 01:07:48;;;;;;;5.03;3.03;;;;;;;;;;475075;29;1245;-70
2024/01/16 01:08:04;;;;;;;5.30;2.97;;;;;;;;;;476172;28;1052;-70
2024/01/16 01:08:19;;;;;;;5.77;2.90;;;;;;;;;;477068;28;953;-71
2024/01/16 01:08:35;;;;;;;5.00;2.83;;;;;;;;;;477370;28;1435;-71
2024/01/16 01:08:51;;;;;;;4.90;2.93;;;;;;;;;;480366;28;1492;-70
2024/01/16 01:09:06;;;;;;;5.68;3.00;;;;;;;;;;480310;28;1400;-70
2024/01/16 01:09:22;;;;;;;5.97;3.10;;;;;;;;;;479154;28;1005;-70
2024/01/16 01:09:37;;;;;;;5.50;3.10;;;;;;;;;;477057;28;1942;-71
2024/01/16 01:09:53;;;;;;;5.80;3.08;;;;;;;;;;478474;28;1185;-71
2024/01/16 01:10:09;;;;;;;6.03;3.00;;;;;;;;;;476654;28;1236;-70
2024/01/16 01:10:24;;;;;;;6.15;3.08;;;;;;;;;;474157;29;1297;-70
2024/01/16 01:10:40;;;;;;;6.55;3.00;;;;;;;;;;475377;29;959;-70
2024/01/16 01:10:55;;;;;;;6.90;3.10;;;;;;;;;;474586;29;934;-71
2024/01/16 01:11:11;;;;;;;7.30;3.08;;;;;;;;;;475211;29;1300;-70
2024/01/16 01:11:27;;;;;;;7.13;2.88;;;;;;;;;;475338;28;1068;-70
2024/01/16 01:11:43;;;;;;;5.43;2.75;;;;;;;;;;478389;28;1196;-70
2024/01/16 01:11:58;;;;;;;6.53;2.87;;;;;;;;;;478327;28;1329;-70
2024/01/16 01:12:14;;;;;;;7.50;3.03;;;;;;;;;;479235;28;1095;-70
2024/01/16 01:12:29;;;;;;;7.83;3.10;;;;;;;;;;478766;28;1082;-70
2024/01/16 01:12:44;;;;;;;6.80;2.85;;;;;;;;;;480455;28;1213;-71
2024/01/16 01:13:00;;;;;;;5.43;2.80;;;;;;;;;;479245;28;1292;-70
2024/01/16 01:13:15;;;;;;;6.85;3.28;;;;;;;;;;479224;28;1091;-70
2024/01/16 01:13:31;;;;;;;6.33;3.40;;;;;;;;;;474776;28;1122;-70
2024/01/16 01:13:46;;;;;;;6.38;3.40;;;;;;;;;;477422;28;1017;-70
2024/01/16 01:14:02;;;;;;;7.27;3.10;;;;;;;;;;475830;29;1362;-71
2024/01/16 01:14:17;;;;;;;6.28;2.88;;;;;;;;;;475719;29;1306;-70
2024/01/16 01:14:33;;;;;;;5.33;2.90;;;;;;;;;;475466;29;950;-71
2024/01/16 01:14:48;;;;;;;5.90;3.05;;;;;;;;;;476296;28;1025;-70
2024/01/16 01:15:04;;;;;;;6.33;3.00;;;;;;;;;;477557;28;1236;-70
2024/01/16 01:15:20;;;;;;;6.97;3.00;;;;;;;;;;478048;28;1253;-70
2024/01/16 01:15:36;;;;;;;6.90;2.90;;;;;;;;;;479724;28;1239;-73
2024/01/16 01:15:51;;;;;;;6.68;2.72;;;;;;;;;;481443;28;1358;-70
2024/01/16 01:16:08;;;;;;;7.47;3.00;;;;;;;;;;481163;28;1483;-70
2024/01/16 01:16:23;;;;;;;6.63;3.25;;;;;;;;;;478688;28;1288;-70
2024/01/16 01:16:39;;;;;;;6.43;3.40;;;;;;;;;;480166;28;1230;-70
2024/01/16 01:16:54;;;;;;;6.95;3.42;;;;;;;;;;481783;28;1042;-70
2024/01/16 01:17:10;;;;;;;7.53;3.40;;;;;;;;;;480832;28;1070;-70
2024/01/16 01:17:25;;;;;;;7.40;3.20;;;;;;;;;;476228;28;1074;-70
2024/01/16 01:17:41;;;;;;;6.83;2.90;;;;;;;;;;478094;28;1099;-70
2024/01/16 01:17:56;;;;;;;5.95;2.92;;;;;;;;;;476907;28;1324;-70
2024/01/16 01:18:12;;;;;;;5.78;3.08;;;;;;;;;;479408;28;1268;-71
2024/01/16 01:18:28;;;;;;;6.72;3.00;;;;;;;;;;475254;28;1361;-70
2024/01/16 01:18:43;;;;;;;6.10;3.03;;;;;;;;;;477308;28;1047;-70
2024/01/16 01:18:59;;;;;;;5.65;3.10;;;;;;;;;;477784;28;1283;-70
2024/01/16 01:19:14;;;;;;;5.47;2.97;;;;;;;;;;478491;28;1542;-71
2024/01/16 01:19:30;;;;;;;6.57;3.13;;;;;;;;;;474298;28;1044;-70
2024/01/16 01:19:46;;;;;;;6.27;3.27;;;;;;;;;;476548;28;1280;-71
2024/01/16 01:20:01;;;;;;;4.45;3.00;;;;;;;;;;479665;28;1216;-71
2024/01/16 01:20:18;;;;;;;5.55;3.30;;;;;;;;;;477383;28;1326;-70
2024/01/16 01:20:34;;;;;;;7.60;3.83;;;;;;;;;;477034;28;1059;-70
2024/01/16 01:20:49;;;;;;;7.73;3.60;;;;;;;;;;477948;28;1086;-70
2024/01/16 01:21:05;;;;;;;7.77;3.23;;;;;;;;;;475779;29;1301;-70
2024/01/16 01:21:20;;;;;;;8.50;3.37;;;;;;;;;;473540;29;1056;-70
2024/01/16 01:21:36;;;;;;;7.50;3.30;;;;;;;;;;474355;28;983;-71
2024/01/16 01:21:51;;;;;;;6.63;3.03;;;;;;;;;;478730;28;953;-70
2024/01/16 01:22:07;;;;;;;6.65;3.17;;;;;;;;;;479943;28;1386;-71
2024/01/16 01:22:22;;;;;;;6.07;3.13;;;;;;;;;;478549;28;1142;-71
2024/01/16 01:22:38;;;;;;;6.03;3.25;;;;;;;;;;479534;28;899;-71
2024/01/16 01:22:53;;;;;;;7.37;3.67;;;;;;;;;;480235;28;1122;-70
2024/01/16 01:23:09;;;;;;;7.40;3.47;;;;;;;;;;481561;28;1064;-70
2024/01/16 01:23:25;;;;;;;6.95;3.30;;;;;;;;;;478916;28;1114;-70
2024/01/16 01:23:40;;;;;;;7.30;3.20;;;;;;;;;;481113;28;1118;-70
2024/01/16 01:23:56;;;;;;;7.53;3.27;;;;;;;;;;480941;28;1321;-70
2024/01/16 01:24:11;;;;;;;6.60;3.40;;;;;;;;;;480252;28;911;-71
2024/01/16 01:24:27;;;;;;;6.72;3.33;;;;;;;;;;478485;28;1135;-70
2024/01/16 01:24:42;;;;;;;6.77;3.30;;;;;;;;;;479331;28;1300;-70
2024/01/16 01:24:58;;;;;;;5.55;3.17;;;;;;;;;;477428;28;1243;-70
2024/01/16 01:25:13;;;;;;;5.57;3.10;;;;;;;;;;477909;28;1298;-71
2024/01/16 01:25:29;;;;;;;5.65;3.20;;;;;;;;;;472193;28;1278;-71
2024/01/16 01:25:44;;;;;;;6.82;3.30;;;;;;;;;;477256;28;1220;-71
2024/01/16 01:26:00;;;;;;;7.63;3.50;;;;;;;;;;477832;28;1189;-71
2024/01/16 01:26:17;;;;;;;6.55;3.40;;;;;;;;;;476788;28;1234;-70
2024/01/16 01:26:33;;;;;;;7.13;3.50;;;;;;;;;;473524;28;954;-71
2024/01/16 01:26:48;;;;;;;6.28;3.28;;;;;;;;;;478542;28;1097;-71
2024/01/16 01:27:04;;;;;;;6.60;3.40;;;;;;;;;;478034;28;933;-71
2024/01/16 01:27:19;;;;;;;6.85;3.47;;;;;;;;;;479145;28;1516;-71
2024/01/16 01:27:35;;;;;;;7.57;3.33;;;;;;;;;;476266;28;920;-71
2024/01/16 01:27:50;;;;;;;8.25;3.55;;;;;;;;;;481486;28;1119;-71
2024/01/16 01:28:05;;;;;;;7.47;3.67;;;;;;;;;;478088;28;1213;-71
2024/01/16 01:28:21;;;;;;;7.20;3.47;;;;;;;;;;474885;28;973;-72
2024/01/16 01:28:39;;;;;;;7.83;3.63;;;;;;;;;;475183;29;1403;-71
2024/01/16 01:28:54;;;;;;;8.65;3.80;;;;;;;;;;476194;28;1296;-71
2024/01/16 01:29:10;;;;;;;7.83;3.67;;;;;;;;;;474988;28;918;-71
2024/01/16 01:29:25;;;;;;;6.57;3.45;;;;;;;;;;471324;29;1321;-71
2024/01/16 01:29:41;;;;;;;6.47;3.50;;;;;;;;;;475917;29;1954;-71
2024/01/16 01:29:57;;;;;;;6.80;3.65;;;;;;;;;;475638;28;1008;-70
2024/01/16 01:30:13;;;;;;;7.10;3.85;;;;;;;;;;477226;28;1390;-71
2024/01/16 01:30:29;;;;;;;7.60;4.00;;;;;;;;;;473206;28;1189;-71
2024/01/16 01:30:44;;;;;;;8.20;3.95;;;;;;;;;;479748;28;929;-71
2024/01/16 01:31:00;;;;;;;7.33;3.60;;;;;;;;;;479773;28;863;-70
2024/01/16 01:31:15;;;;;;;6.32;3.60;;;;;;;;;;479877;28;1088;-71
2024/01/16 01:31:30;;;;;;;8.13;3.90;;;;;;;;;;476615;28;1022;-71
2024/01/16 01:31:49;;;;;;;8.68;3.90;;;;;;;;;;481257;28;1238;-71
2024/01/16 01:32:05;;;;;;;8.02;3.80;;;;;;;;;;478716;28;1473;-71
2024/01/16 01:32:20;;;;;;;8.57;3.75;;;;;;;;;;475468;28;1078;-71
2024/01/16 01:32:36;;;;;;;7.53;3.80;;;;;;;;;;477316;28;1181;-71
2024/01/16 01:32:51;;;;;;;7.88;3.90;;;;;;;;;;481812;28;945;-71
2024/01/16 01:33:07;;;;;;;7.25;3.80;;;;;;;;;;478019;28;1200;-70
2024/01/16 01:33:22;;;;;;;6.50;3.90;;;;;;;;;;474808;28;1000;-71
2024/01/16 01:33:39;;;;;;;7.00;3.80;;;;;;;;;;477919;28;938;-71
2024/01/16 01:33:55;;;;;;;7.07;3.85;;;;;;;;;;478424;28;1017;-71
2024/01/16 01:34:10;;;;;;;7.90;3.90;;;;;;;;;;475534;28;1241;-71
2024/01/16 01:34:25;;;;;;;7.33;3.80;;;;;;;;;;469967;29;1225;-71
2024/01/16 01:34:42;;;;;;;6.65;3.90;;;;;;;;;;474647;29;993;-70
2024/01/16 01:34:58;;;;;;;7.80;3.97;;;;;;;;;;475947;28;1127;-71
2024/01/16 01:35:14;;;;;;;7.93;3.85;;;;;;;;;;469786;29;1526;-71
2024/01/16 01:35:29;;;;;;;7.13;3.88;;;;;;;;;;471508;29;1289;-71
2024/01/16 01:35:45;;;;;;;7.47;4.00;;;;;;;;;;476421;28;1063;-70
2024/01/16 01:36:00;;;;;;;7.80;4.03;;;;;;;;;;476694;28;1296;-71
2024/01/16 01:36:16;;;;;;;7.65;4.10;;;;;;;;;;476232;28;948;-70
2024/01/16 01:36:31;;;;;;;7.60;4.00;;;;;;;;;;471752;29;1186;-71
2024/01/16 01:36:47;;;;;;;8.23;3.83;;;;;;;;;;471956;29;1017;-70
2024/01/16 01:37:02;;;;;;;9.90;3.90;;;;;;;;;;472900;29;1100;-70
2024/01/16 01:37:18;;;;;;;9.75;4.10;;;;;;;;;;474453;29;1174;-70
2024/01/16 01:37:33;;;;;;;8.40;4.10;;;;;;;;;;472057;29;1001;-70